| time (UTC) | temp C | wind direction | speed KPH | gust KPH | rain 1hr cm | rain 24hr cm | rain mn cm | humidity % | barometer mb |
| 20260504174828 | 10 | 46 | 14.5 | 37.0 | 0.00 | 0.00 | 0.00 | 53 | 1011.5 |
| 20260504174335 | 10 | 12 | 14.5 | 37.0 | 0.00 | 0.00 | 0.00 | 54 | 1011.5 |
| 20260504173817 | 10 | 344 | 19.3 | 32.2 | 0.00 | 0.00 | 0.00 | 55 | 1011.7 |
| 20260504173328 | 10 | 333 | 16.1 | 25.7 | 0.00 | 0.00 | 0.00 | 56 | 1011.7 |
| 20260504172833 | 10 | 341 | 12.9 | 37.0 | 0.00 | 0.00 | 0.00 | 56 | 1011.7 |
| 20260504172316 | 9 | 346 | 12.9 | 37.0 | 0.00 | 0.00 | 0.00 | 56 | 1011.7 |
| 20260504171822 | 9 | 329 | 14.5 | 30.6 | 0.00 | 0.00 | 0.00 | 56 | 1011.7 |
| 20260504171324 | 8 | 63 | 11.3 | 35.4 | 0.00 | 0.00 | 0.00 | 57 | 1011.7 |
| 20260504170829 | 8 | 14 | 19.3 | 37.0 | 0.00 | 0.00 | 0.00 | 56 | 1011.7 |
| 20260504170332 | 8 | 43 | 17.7 | 37.0 | 0.00 | 0.00 | 0.00 | 55 | 1011.8 |
| 20260504160316 | 10 | 15 | 11.3 | 38.6 | 0.00 | 0.00 | 0.00 | 54 | 1011.0 |
| 20260504150829 | 10 | 355 | 16.1 | 30.6 | 0.00 | 0.00 | 0.00 | 56 | 1010.7 |
| 20260504150333 | 10 | 17 | 14.5 | 25.7 | 0.00 | 0.00 | 0.00 | 55 | 1010.7 |
| 20260504140826 | 8 | 355 | 12.9 | 25.7 | 0.00 | 0.00 | 0.00 | 60 | 1010.6 |
| 20260504140354 | 8 | 11 | 8.0 | 25.7 | 0.00 | 0.00 | 0.00 | 59 | 1010.6 |
| 20260504130334 | 7 | 21 | 8.0 | 24.1 | 0.00 | 0.00 | 0.00 | 68 | 1009.2 |
| 20260504110336 | 3 | 11 | 4.8 | 8.0 | 0.00 | 0.00 | 0.00 | 89 | 1007.6 |
| 20260504100327 | 4 | 360 | 0.0 | 0.0 | 0.00 | 0.00 | 0.00 | 87 | 1006.6 |
| 20260504081828 | 5 | 199 | 0.0 | 4.8 | 0.00 | 0.00 | 0.00 | 83 | 1006.5 |
| 20260504081318 | 5 | 199 | 3.2 | 4.8 | 0.00 | 0.00 | 0.00 | 83 | 1006.5 |
| 20260504080825 | 5 | 199 | 1.6 | 6.4 | 0.00 | 0.00 | 0.00 | 82 | 1006.6 |
| 20260504080328 | 6 | 199 | 1.6 | 8.0 | 0.00 | 0.00 | 0.00 | 83 | 1006.5 |
| 20260504070321 | 6 | 190 | 8.0 | 9.7 | 0.00 | 0.00 | 0.00 | 82 | 1006.8 |
| 20260504050323 | 8 | 196 | 11.3 | 12.9 | 0.00 | 0.00 | 0.00 | 61 | 1007.2 |
| 20260504045824 | 8 | 201 | 9.7 | 12.9 | 0.00 | 0.00 | 0.00 | 61 | 1007.2 |
| 20260504045327 | 8 | 179 | 1.6 | 9.7 | 0.00 | 0.00 | 0.00 | 60 | 1007.2 |
| 20260504044830 | 8 | 187 | 6.4 | 9.7 | 0.00 | 0.00 | 0.00 | 59 | 1007.1 |
| 20260504044332 | 8 | 153 | 4.8 | 9.7 | 0.00 | 0.00 | 0.00 | 57 | 1007.1 |
| 20260504043819 | 8 | 184 | 8.0 | 9.7 | 0.00 | 0.00 | 0.00 | 56 | 1007.2 |
| 20260504043325 | 9 | 360 | 1.6 | 8.0 | 0.00 | 0.00 | 0.00 | 56 | 1007.3 |
| 20260504042827 | 10 | 215 | 1.6 | 8.0 | 0.00 | 0.00 | 0.00 | 54 | 1007.3 |
| 20260504042329 | 10 | 234 | 0.0 | 6.4 | 0.00 | 0.00 | 0.00 | 54 | 1007.3 |
| 20260504041833 | 11 | 236 | 1.6 | 6.4 | 0.00 | 0.00 | 0.00 | 52 | 1007.3 |
| 20260504041319 | 11 | 232 | 0.0 | 6.4 | 0.00 | 0.00 | 0.00 | 51 | 1007.4 |
| 20260504040821 | 12 | 325 | 3.2 | 6.4 | 0.00 | 0.00 | 0.00 | 50 | 1007.5 |
| 20260504040346 | 12 | 325 | 0.0 | 0.0 | 0.00 | 0.00 | 0.00 | 49 | 1007.6 |
| 20260504035828 | 12 | 325 | 0.0 | 0.0 | 0.00 | 0.00 | 0.00 | 42 | 1007.6 |
| 20260504035352 | 12 | 355 | 0.0 | 0.0 | 0.00 | 0.00 | 0.00 | 40 | 1007.8 |
| 20260504034832 | 13 | 355 | 0.0 | 0.0 | 0.00 | 0.00 | 0.00 | 40 | 1007.8 |
| 20260504034318 | 13 | 355 | 0.0 | 0.0 | 0.00 | 0.00 | 0.00 | 40 | 1007.7 |
| 20260504033845 | 13 | 342 | 0.0 | 8.0 | 0.00 | 0.00 | 0.00 | 35 | 1007.7 |
| 20260504033329 | 13 | 342 | 3.2 | 11.3 | 0.00 | 0.00 | 0.00 | 33 | 1007.6 |
| 20260504032830 | 13 | 315 | 6.4 | 11.3 | 0.00 | 0.00 | 0.00 | 33 | 1007.5 |
| 20260504032353 | 13 | 329 | 6.4 | 12.9 | 0.00 | 0.00 | 0.00 | 34 | 1007.5 |
| 20260504031835 | 14 | 309 | 8.0 | 12.9 | 0.00 | 0.00 | 0.00 | 34 | 1007.5 |
| 20260504031340 | 14 | 331 | 8.0 | 11.3 | 0.00 | 0.00 | 0.00 | 34 | 1007.5 |
| 20260504030825 | 14 | 318 | 8.0 | 11.3 | 0.00 | 0.00 | 0.00 | 35 | 1007.5 |
| 20260504030330 | 14 | 313 | 8.0 | 9.7 | 0.00 | 0.00 | 0.00 | 35 | 1007.4 |
| 20260504025835 | 14 | 318 | 8.0 | 11.3 | 0.00 | 0.00 | 0.00 | 36 | 1007.4 |
| 20260504025338 | 14 | 327 | 8.0 | 11.3 | 0.00 | 0.00 | 0.00 | 36 | 1007.4 |
| 20260504024820 | 14 | 318 | 4.8 | 9.7 | 0.00 | 0.00 | 0.00 | 37 | 1007.3 |
| 20260504024323 | 14 | 324 | 6.4 | 9.7 | 0.00 | 0.00 | 0.00 | 37 | 1007.4 |
| 20260504023846 | 15 | 309 | 6.4 | 9.7 | 0.00 | 0.00 | 0.00 | 38 | 1007.3 |
| 20260504023328 | 15 | 278 | 6.4 | 9.7 | 0.00 | 0.00 | 0.00 | 38 | 1007.2 |
| 20260504022830 | 15 | 279 | 8.0 | 9.7 | 0.00 | 0.00 | 0.00 | 38 | 1007.2 |
| 20260504022333 | 15 | 297 | 8.0 | 9.7 | 0.00 | 0.00 | 0.00 | 37 | 1007.1 |
| 20260504021835 | 16 | 261 | 6.4 | 9.7 | 0.00 | 0.00 | 0.00 | 36 | 1007.3 |
| 20260504021338 | 16 | 285 | 6.4 | 11.3 | 0.00 | 0.00 | 0.00 | 36 | 1007.1 |
| 20260504020821 | 16 | 320 | 3.2 | 11.3 | 0.00 | 0.00 | 0.00 | 33 | 1007.1 |
| 20260504020345 | 17 | 309 | 6.4 | 9.7 | 0.00 | 0.00 | 0.00 | 32 | 1007.0 |
| 20260504015846 | 17 | 308 | 3.2 | 9.7 | 0.00 | 0.00 | 0.00 | 32 | 1006.9 |
| 20260504015328 | 17 | 311 | 4.8 | 11.3 | 0.00 | 0.00 | 0.00 | 33 | 1007.0 |
| 20260504014834 | 17 | 301 | 6.4 | 11.3 | 0.00 | 0.00 | 0.00 | 32 | 1007.0 |
| 20260504014337 | 17 | 301 | 6.4 | 11.3 | 0.00 | 0.00 | 0.00 | 32 | 1007.0 |
| 20260504013840 | 17 | 308 | 4.8 | 12.9 | 0.00 | 0.00 | 0.00 | 32 | 1007.0 |
| 20260504013322 | 18 | 281 | 8.0 | 12.9 | 0.00 | 0.00 | 0.00 | 32 | 1007.1 |
| 20260504012825 | 18 | 296 | 6.4 | 11.3 | 0.00 | 0.00 | 0.00 | 31 | 1007.3 |
| 20260504012328 | 18 | 347 | 3.2 | 14.5 | 0.00 | 0.00 | 0.00 | 31 | 1007.4 |
| 20260504011850 | 18 | 306 | 6.4 | 20.9 | 0.00 | 0.00 | 0.00 | 31 | 1007.4 |
| 20260504011334 | 18 | 326 | 8.0 | 22.5 | 0.00 | 0.00 | 0.00 | 30 | 1007.4 |
| 20260504010821 | 18 | 295 | 8.0 | 22.5 | 0.00 | 0.00 | 0.00 | 30 | 1007.4 |
| 20260504010325 | 18 | 308 | 8.0 | 16.1 | 0.00 | 0.00 | 0.00 | 29 | 1007.6 |
| 20260504005828 | 18 | 360 | 4.8 | 17.7 | 0.00 | 0.00 | 0.00 | 29 | 1007.7 |
| 20260504005350 | 19 | 321 | 8.0 | 29.0 | 0.00 | 0.00 | 0.00 | 29 | 1007.7 |
| 20260504004856 | 19 | 9 | 14.5 | 29.0 | 0.00 | 0.00 | 0.00 | 28 | 1007.7 |
| 20260504004321 | 19 | 318 | 8.0 | 20.9 | 0.00 | 0.00 | 0.00 | 29 | 1007.8 |
| 20260504003828 | 19 | 309 | 11.3 | 20.9 | 0.00 | 0.00 | 0.00 | 29 | 1007.7 |
| 20260504003331 | 19 | 312 | 8.0 | 20.9 | 0.00 | 0.00 | 0.00 | 28 | 1007.7 |
| 20260504002833 | 20 | 329 | 11.3 | 20.9 | 0.00 | 0.00 | 0.00 | 28 | 1007.7 |
| 20260504002336 | 20 | 310 | 11.3 | 17.7 | 0.00 | 0.00 | 0.00 | 29 | 1007.8 |
| 20260504001859 | 19 | 265 | 8.0 | 19.3 | 0.00 | 0.00 | 0.00 | 30 | 1007.9 |
| 20260504001321 | 20 | 281 | 14.5 | 19.3 | 0.00 | 0.00 | 0.00 | 30 | 1007.9 |
| 20260504000844 | 20 | 286 | 14.5 | 19.3 | 0.00 | 0.00 | 0.00 | 30 | 1008.0 |
| 20260504000328 | 20 | 350 | 6.4 | 17.7 | 0.00 | 0.00 | 0.00 | 30 | 1007.9 |
| 20260503235829 | 20 | 321 | 9.7 | 17.7 | 0.00 | 0.00 | 0.00 | 31 | 1008.0 |
| 20260503235332 | 20 | 310 | 6.4 | 17.7 | 0.00 | 0.00 | 0.00 | 32 | 1008.1 |
| 20260503234834 | 20 | 273 | 8.0 | 14.5 | 0.00 | 0.00 | 0.00 | 30 | 1008.1 |
| 20260503234317 | 20 | 276 | 0.0 | 19.3 | 0.00 | 0.00 | 0.00 | 32 | 1008.1 |
| 20260503233822 | 20 | 244 | 8.0 | 19.3 | 0.00 | 0.00 | 0.00 | 31 | 1008.1 |
| 20260503233330 | 20 | 156 | 4.8 | 9.7 | 0.00 | 0.00 | 0.00 | 30 | 1008.1 |
| 20260503232833 | 20 | 131 | 1.6 | 9.7 | 0.00 | 0.00 | 0.00 | 33 | 1008.1 |
| 20260503232335 | 19 | 178 | 1.6 | 11.3 | 0.00 | 0.00 | 0.00 | 32 | 1008.2 |
| 20260503231819 | 20 | 200 | 6.4 | 11.3 | 0.00 | 0.00 | 0.00 | 32 | 1008.2 |
| 20260503231322 | 20 | 290 | 6.4 | 9.7 | 0.00 | 0.00 | 0.00 | 33 | 1008.4 |
| 20260503230825 | 20 | 221 | 0.0 | 11.3 | 0.00 | 0.00 | 0.00 | 33 | 1008.4 |
| 20260503230329 | 20 | 221 | 4.8 | 22.5 | 0.00 | 0.00 | 0.00 | 33 | 1008.3 |
| 20260503225852 | 20 | 270 | 9.7 | 25.7 | 0.00 | 0.00 | 0.00 | 32 | 1008.4 |
| 20260503225333 | 20 | 234 | 19.3 | 25.7 | 0.00 | 0.00 | 0.00 | 32 | 1008.2 |
| 20260503224834 | 20 | 210 | 12.9 | 17.7 | 0.00 | 0.00 | 0.00 | 33 | 1008.3 |
| 20260503224340 | 20 | 317 | 3.2 | 14.5 | 0.00 | 0.00 | 0.00 | 35 | 1008.4 |
| 20260503223822 | 20 | 86 | 0.0 | 14.5 | 0.00 | 0.00 | 0.00 | 36 | 1008.4 |
| 20260503223327 | 20 | 109 | 11.3 | 14.5 | 0.00 | 0.00 | 0.00 | 36 | 1008.4 |
| 20260503222832 | 20 | 58 | 4.8 | 12.9 | 0.00 | 0.00 | 0.00 | 37 | 1008.4 |
| 20260503222334 | 19 | 80 | 3.2 | 11.3 | 0.00 | 0.00 | 0.00 | 38 | 1008.5 |
| 20260503221838 | 19 | 57 | 3.2 | 14.5 | 0.00 | 0.00 | 0.00 | 38 | 1008.4 |
| 20260503221320 | 18 | 66 | 8.0 | 16.1 | 0.00 | 0.00 | 0.00 | 38 | 1008.6 |
| 20260503220823 | 19 | 98 | 12.9 | 16.1 | 0.00 | 0.00 | 0.00 | 39 | 1008.7 |
| 20260503220331 | 19 | 99 | 9.7 | 16.1 | 0.00 | 0.00 | 0.00 | 40 | 1008.8 |
| 20260503215853 | 18 | 80 | 6.4 | 14.5 | 0.00 | 0.00 | 0.00 | 41 | 1008.9 |
| 20260503215334 | 18 | 82 | 4.8 | 14.5 | 0.00 | 0.00 | 0.00 | 40 | 1009.0 |
| 20260503214836 | 18 | 71 | 8.0 | 16.1 | 0.00 | 0.00 | 0.00 | 41 | 1009.0 |
| 20260503214318 | 18 | 132 | 11.3 | 16.1 | 0.00 | 0.00 | 0.00 | 40 | 1009.2 |
| 20260503213825 | 18 | 101 | 9.7 | 16.1 | 0.00 | 0.00 | 0.00 | 41 | 1010.1 |
| 20260503213351 | 18 | 72 | 4.8 | 16.1 | 0.00 | 0.00 | 0.00 | 42 | 1010.2 |
| 20260503212818 | 18 | 98 | 11.3 | 14.5 | 0.00 | 0.00 | 0.00 | 41 | 1010.3 |
| 20260503212323 | 18 | 48 | 4.8 | 16.1 | 0.00 | 0.00 | 0.00 | 42 | 1010.3 |
| 20260503211825 | 18 | 26 | 1.6 | 16.1 | 0.00 | 0.00 | 0.00 | 42 | 1010.5 |
| 20260503211330 | 18 | 69 | 9.7 | 17.7 | 0.00 | 0.00 | 0.00 | 43 | 1010.7 |
| 20260503210853 | 18 | 26 | 11.3 | 17.7 | 0.00 | 0.00 | 0.00 | 41 | 1010.7 |
| 20260503210340 | 18 | 355 | 9.7 | 12.9 | 0.00 | 0.00 | 0.00 | 42 | 1010.9 |
| 20260503205820 | 18 | 143 | 1.6 | 14.5 | 0.00 | 0.00 | 0.00 | 41 | 1010.8 |
| 20260503205328 | 18 | 169 | 9.7 | 17.7 | 0.00 | 0.00 | 0.00 | 42 | 1011.0 |
| 20260503204829 | 18 | 170 | 6.4 | 19.3 | 0.00 | 0.00 | 0.00 | 43 | 1011.0 |
| 20260503204333 | 18 | 226 | 9.7 | 19.3 | 0.00 | 0.00 | 0.00 | 42 | 1011.1 |
| 20260503203834 | 18 | 202 | 9.7 | 17.7 | 0.00 | 0.00 | 0.00 | 43 | 1011.2 |
| 20260503203321 | 17 | 231 | 11.3 | 17.7 | 0.00 | 0.00 | 0.00 | 44 | 1011.2 |
| 20260503202827 | 17 | 236 | 6.4 | 19.3 | 0.00 | 0.00 | 0.00 | 45 | 1011.2 |
| 20260503202329 | 17 | 211 | 14.5 | 22.5 | 0.00 | 0.00 | 0.00 | 44 | 1011.4 |
| 20260503201836 | 17 | 213 | 11.3 | 22.5 | 0.00 | 0.00 | 0.00 | 43 | 1011.4 |
| 20260503201339 | 17 | 200 | 12.9 | 20.9 | 0.00 | 0.00 | 0.00 | 43 | 1011.4 |
| 20260503200841 | 16 | 186 | 14.5 | 19.3 | 0.00 | 0.00 | 0.00 | 46 | 1011.3 |
| 20260503200327 | 15 | 186 | 14.5 | 19.3 | 0.00 | 0.00 | 0.00 | 47 | 1011.5 |
| 20260503195829 | 14 | 183 | 11.3 | 17.7 | 0.00 | 0.00 | 0.00 | 51 | 1011.6 |
| 20260503195333 | 13 | 181 | 14.5 | 19.3 | 0.00 | 0.00 | 0.00 | 50 | 1011.6 |
| 20260503194818 | 13 | 219 | 14.5 | 29.0 | 0.00 | 0.00 | 0.00 | 49 | 1011.7 |
| 20260503194325 | 14 | 213 | 19.3 | 32.2 | 0.00 | 0.00 | 0.00 | 46 | 1011.8 |
| 20260503193848 | 14 | 281 | 17.7 | 32.2 | 0.00 | 0.00 | 0.00 | 46 | 1011.8 |
| 20260503193330 | 15 | 244 | 17.7 | 24.1 | 0.00 | 0.00 | 0.00 | 48 | 1012.1 |
| 20260503192835 | 15 | 281 | 14.5 | 32.2 | 0.00 | 0.00 | 0.00 | 47 | 1012.1 |
| 20260503192322 | 15 | 238 | 14.5 | 45.1 | 0.00 | 0.00 | 0.00 | 49 | 1011.9 |
| 20260503191848 | 16 | 232 | 19.3 | 45.1 | 0.00 | 0.00 | 0.00 | 47 | 1012.1 |
| 20260503191353 | 17 | 256 | 22.5 | 37.0 | 0.00 | 0.00 | 0.00 | 39 | 1011.8 |
| 20260503190855 | 17 | 211 | 16.1 | 24.1 | 0.00 | 0.00 | 0.00 | 38 | 1011.7 |
| 20260503190338 | 17 | 283 | 11.3 | 20.9 | 0.00 | 0.00 | 0.00 | 39 | 1011.8 |
| 20260503185821 | 17 | 264 | 4.8 | 20.9 | 0.00 | 0.00 | 0.00 | 39 | 1011.8 |
| 20260503185323 | 17 | 208 | 8.0 | 16.1 | 0.00 | 0.00 | 0.00 | 38 | 1012.0 |
| 20260503184829 | 17 | 238 | 11.3 | 16.1 | 0.00 | 0.00 | 0.00 | 39 | 1012.1 |
| 20260503184332 | 17 | 350 | 6.4 | 14.5 | 0.00 | 0.00 | 0.00 | 43 | 1012.2 |
| 20260503183835 | 17 | 290 | 9.7 | 14.5 | 0.00 | 0.00 | 0.00 | 39 | 1012.4 |
| 20260503183339 | 17 | 217 | 8.0 | 17.7 | 0.00 | 0.00 | 0.00 | 39 | 1012.7 |
| 20260503182820 | 17 | 298 | 8.0 | 19.3 | 0.00 | 0.00 | 0.00 | 39 | 1012.8 |
| 20260503182323 | 17 | 270 | 6.4 | 20.9 | 0.00 | 0.00 | 0.00 | 38 | 1012.8 |
| 20260503181829 | 18 | 272 | 14.5 | 25.7 | 0.00 | 0.00 | 0.00 | 38 | 1012.9 |
| 20260503181333 | 17 | 229 | 14.5 | 25.7 | 0.00 | 0.00 | 0.00 | 40 | 1013.0 |
| 20260503180817 | 17 | 225 | 6.4 | 25.7 | 0.00 | 0.00 | 0.00 | 39 | 1013.1 |
| 20260503180325 | 17 | 184 | 11.3 | 25.7 | 0.00 | 0.00 | 0.00 | 38 | 1013.3 |
| 20260503175826 | 17 | 221 | 11.3 | 16.1 | 0.00 | 0.00 | 0.00 | 38 | 1013.2 |
| 20260503175328 | 17 | 350 | 8.0 | 29.0 | 0.00 | 0.00 | 0.00 | 39 | 1013.4 |